Latest Weather Observations for Bickley

IDW60801

Issued at 3:44 pm WST Monday 23 May 2022 (issued every 10 minutes, with the page automatically refreshed every 10 minutes)

About weather observations | Map of weather stations | Latest weather observations for WA | Other Formats
Station Details ID: 009240 Name: BICKLEY Lat: -32.01 Lon: 116.14 Height: 384.0 m
Data from the previous 72 hours. | See also: Recent months at Bickley
Date/Time
WST
Temp
°C
App
Temp
°C
Dew
Point
°C
Rel
Hum
%
Delta-T
°C
Wind Press
QNH
hPa
Press
MSL
hPa
Rain since
9am
mm
Dir  Spd
km/h
Gust
km/h
Spd
kts
Gust
kts
23/03:38pm 14.7 9.5 10.1 74 2.4 WNW 28 50 15 27 - - 13.0
23/03:30pm 14.7 10.3 10.3 75 2.3 WNW 24 44 13 24 - - 12.8
23/03:00pm 14.6 10.9 10.2 75 2.3 WNW 20 43 11 23 - - 12.2
23/02:30pm 14.3 9.1 10.1 76 2.2 WNW 28 46 15 25 - - 11.4
23/02:05pm 15.0 10.2 11.6 80 1.9 WNW 28 52 15 28 - - 10.8
23/02:00pm 14.9 11.6 12.8 87 1.2 WNW 22 44 12 24 - - 10.6
23/01:30pm 13.4 10.2 13.2 99 0.1 NW 22 41 12 22 - - 9.8
23/01:00pm 11.9 9.6 11.7 99 0.1 NW 15 26 8 14 - - 9.2
23/12:30pm 11.4 7.6 11.2 99 0.1 NW 22 41 12 22 - - 8.8
23/12:00pm 11.5 9.4 11.3 99 0.1 N 13 24 7 13 - - 8.4
23/11:30am 11.0 8.0 10.8 99 0.1 N 17 26 9 14 - - 4.8
23/11:00am 10.9 7.9 10.7 99 0.1 N 17 28 9 15 - - 0.6
23/10:30am 11.2 6.9 10.7 97 0.3 N 24 46 13 25 - - 0.2
23/10:00am 11.5 6.6 11.3 99 0.1 N 28 48 15 26 - - 0.2
23/09:49am 11.8 7.0 11.6 99 0.1 N 28 50 15 27 - - 0.0
23/09:30am 11.8 8.7 11.6 99 0.1 N 19 39 10 21 - - 0.0
23/09:00am 11.5 9.1 11.3 99 0.1 N 15 26 8 14 - - 24.4
23/08:30am 11.6 8.8 11.4 99 0.1 NNW 17 33 9 18 - - 24.2
23/08:00am 11.7 10.1 11.5 99 0.1 NW 11 22 6 12 - - 24.0
23/07:30am 11.8 8.1 11.6 99 0.1 N 22 41 12 22 - - 23.8
23/07:00am 11.9 8.3 11.7 99 0.1 NNW 22 43 12 23 - - 23.8
23/06:30am 11.7 8.9 11.5 99 0.1 NNW 17 26 9 14 - - 23.6
23/06:00am 11.7 8.6 11.5 99 0.1 NNW 19 30 10 16 - - 23.4
23/05:30am 11.7 9.3 11.5 99 0.1 NNW 15 26 8 14 - - 23.2
23/05:00am 11.8 8.7 11.6 99 0.1 NNW 19 33 10 18 - - 23.0
23/04:30am 11.8 9.1 11.6 99 0.1 NW 17 32 9 17 - - 19.8
23/04:02am 12.2 7.5 12.0 99 0.1 NNW 28 50 15 27 - - 19.4
23/04:00am 12.3 8.0 12.1 99 0.1 NNW 26 50 14 27 - - 19.4
23/03:48am 12.3 7.6 12.1 99 0.1 NNW 28 48 15 26 - - 19.2
23/03:30am 12.1 9.5 11.9 99 0.1 NNW 17 33 9 18 - - 19.0
23/03:00am 12.0 8.4 11.8 99 0.1 NNW 22 39 12 21 - - 18.6
23/02:30am 12.0 8.4 11.8 99 0.1 N 22 41 12 22 - - 18.4
23/02:00am 12.1 9.1 11.9 99 0.1 NNW 19 33 10 18 - - 18.2
23/01:30am 12.2 9.0 12.0 99 0.1 NNW 20 41 11 22 - - 18.0
23/01:00am 12.3 8.4 12.1 99 0.1 NNW 24 41 13 22 - - 17.8
23/12:30am 12.2 9.2 12.0 99 0.1 NNW 19 33 10 18 - - 17.6
23/12:00am 12.1 9.8 11.9 99 0.1 NNW 15 26 8 14 - - 17.6
 
Date/Time
WST
Temp
°C
App
Temp
°C
Dew
Point
°C
Rel
Hum
%
Delta-T
°C
Wind Press
QNH
hPa
Press
MSL
hPa
Rain since
9am
mm
Dir  Spd
km/h
Gust
km/h
Spd
kts
Gust
kts
22/11:30pm 12.2 9.6 12.0 99 0.1 NNW 17 24 9 13 - - 17.4
22/11:00pm 12.2 9.2 12.0 99 0.1 NNW 19 28 10 15 - - 17.0
22/10:30pm 12.4 9.9 12.2 99 0.1 NNW 17 30 9 16 - - 16.6
22/10:00pm 12.3 10.5 12.1 99 0.1 NNW 13 20 7 11 - - 16.2
22/09:30pm 12.4 10.6 12.2 99 0.1 NW 13 17 7 9 - - 15.6
22/09:00pm 12.6 10.5 12.4 99 0.1 NW 15 26 8 14 - - 15.2
22/08:30pm 13.1 10.4 12.9 99 0.1 NW 19 33 10 18 - - 14.6
22/08:00pm 13.2 10.3 13.0 99 0.1 NNW 20 30 11 16 - - 14.4
22/07:30pm 13.2 11.3 13.0 99 0.1 NNW 15 24 8 13 - - 14.2
22/07:00pm 13.3 10.7 13.1 99 0.1 NNW 19 30 10 16 - - 14.2
22/06:30pm 13.5 11.3 13.3 99 0.1 NNW 17 35 9 19 - - 14.0
22/06:00pm 13.8 10.8 13.6 99 0.1 NNW 22 43 12 23 - - 14.0
22/05:30pm 13.9 10.5 13.7 99 0.1 NNW 24 46 13 25 - - 14.0
22/05:00pm 13.8 10.4 13.6 99 0.1 NNW 24 43 13 23 - - 12.2
22/04:30pm 13.7 11.0 13.5 99 0.1 NNW 20 35 11 19 - - 12.0
22/04:00pm 13.4 11.2 13.2 99 0.1 NNW 17 30 9 16 - - 11.6
22/03:30pm 13.4 10.6 13.2 99 0.1 NW 20 39 11 21 - - 10.6
22/03:05pm 13.9 9.7 13.6 98 0.2 NNW 28 52 15 28 - - 5.2
22/03:00pm 13.9 10.8 13.3 96 0.3 NNW 22 46 12 25 - - 4.4
22/02:30pm 14.4 10.6 12.4 88 1.1 NNW 24 48 13 26 - - 3.4
22/02:00pm 15.5 9.1 11.9 79 2.0 NNW 37 69 20 37 - - 0.2
22/01:51pm 17.3 12.7 12.2 72 2.9 NNW 28 70 15 38 - - 0.2
22/01:30pm 19.0 15.1 13.2 69 3.3 NNW 26 44 14 24 - - 0.2
22/01:00pm 19.7 17.1 13.9 69 3.4 N 20 43 11 23 - - 0.0
22/12:30pm 20.8 18.6 13.3 62 4.4 N 17 35 9 19 - - 0.0
22/12:00pm 19.5 17.5 13.9 70 3.3 NNE 17 32 9 17 - - 0.0
22/11:30am 19.1 16.7 13.7 71 3.1 NNE 19 33 10 18 - - 0.0
22/11:00am 19.9 17.9 14.0 69 3.5 NE 17 32 9 17 - - 0.0
22/10:30am 18.0 16.3 13.7 76 2.5 NE 15 28 8 15 - - 0.0
22/10:00am 16.6 14.4 13.3 81 1.9 ENE 17 26 9 14 - - 0.0
22/09:30am 15.4 13.3 12.3 82 1.7 ENE 15 24 8 13 - - 0.0
22/09:00am 14.1 12.0 12.5 90 0.9 ENE 15 24 8 13 - - 0.0
22/08:30am 12.8 10.2 11.9 94 0.5 ENE 17 26 9 14 - - 0.0
22/08:00am 11.9 9.3 10.8 93 0.6 E 15 22 8 12 - - 0.0
22/07:30am 11.2 8.0 9.8 91 0.7 ENE 17 24 9 13 - - 0.0
22/07:00am 11.1 7.7 9.0 87 1.1 ENE 17 22 9 12 - - 0.0
22/06:30am 11.1 7.2 8.5 84 1.3 ENE 19 28 10 15 - - 0.0
22/06:00am 11.4 7.5 8.6 83 1.4 ENE 19 24 10 13 - - 0.0
22/05:30am 11.3 8.1 8.5 83 1.4 ENE 15 22 8 12 - - 0.0
22/05:00am 11.7 8.5 8.4 80 1.7 ENE 15 22 8 12 - - 0.0
22/04:30am 11.5 8.0 8.7 83 1.4 ENE 17 26 9 14 - - 0.0
22/04:00am 11.6 8.1 8.6 82 1.5 ENE 17 22 9 12 - - 0.0
22/03:30am 11.5 8.7 8.5 82 1.5 ENE 13 20 7 11 - - 0.0
22/03:00am 11.7 8.5 8.4 80 1.7 ENE 15 24 8 13 - - 0.0
22/02:30am 12.0 8.3 8.1 77 2.0 ENE 17 22 9 12 - - 0.0
22/02:00am 12.5 9.6 8.2 75 2.2 ENE 13 17 7 9 - - 0.0
22/01:30am 12.8 9.9 8.1 73 2.4 ENE 13 20 7 11 - - 0.0
22/01:00am 13.9 11.4 8.3 69 2.9 NE 11 13 6 7 - - 0.0
22/12:30am 13.7 11.2 8.3 70 2.8 NNE 11 13 6 7 - - 0.0
22/12:00am 14.0 11.5 8.4 69 2.9 NE 11 13 6 7 - - 0.0
 
Date/Time
WST
Temp
°C
App
Temp
°C
Dew
Point
°C
Rel
Hum
%
Delta-T
°C
Wind Press
QNH
hPa
Press
MSL
hPa
Rain since
9am
mm
Dir  Spd
km/h
Gust
km/h
Spd
kts
Gust
kts
21/11:30pm 14.1 11.3 8.5 69 2.9 ENE 13 15 7 8 - - 0.0
21/11:00pm 14.5 12.1 8.7 68 3.0 ENE 11 13 6 7 - - 0.0
21/10:30pm 14.5 12.1 8.5 67 3.1 ENE 11 15 6 8 - - 0.0
21/10:00pm 15.0 12.6 8.7 66 3.3 ENE 11 15 6 8 - - 0.0
21/09:30pm 15.8 13.1 8.8 63 3.7 ENE 13 20 7 11 - - 0.0
21/09:00pm 15.4 13.4 8.6 64 3.5 NNE 9 11 5 6 - - 0.0
21/08:30pm 15.7 13.4 8.9 64 3.6 E 11 13 6 7 - - 0.0
21/08:00pm 16.2 13.9 8.9 62 3.8 E 11 13 6 7 - - 0.0
21/07:30pm 16.4 14.1 9.1 62 3.8 E 11 13 6 7 - - 0.0
21/07:00pm 16.1 13.8 9.1 63 3.7 ENE 11 13 6 7 - - 0.0
21/06:30pm 16.4 14.1 9.1 62 3.8 ENE 11 15 6 8 - - 0.0
21/06:00pm 17.0 14.8 9.2 60 4.1 ENE 11 15 6 8 - - 0.0
21/05:30pm 17.8 15.7 9.9 60 4.3 ENE 11 13 6 7 - - 0.0
21/05:00pm 19.3 17.8 10.6 57 4.8 ENE 9 13 5 7 - - 0.0
21/04:30pm 21.2 19.9 9.1 46 6.6 NE 6 9 3 5 - - 0.0
21/04:00pm 22.1 20.7 9.6 45 6.9 ENE 7 13 4 7 - - 0.0
21/03:30pm 22.2 19.9 9.0 43 7.2 NE 11 22 6 12 - - 0.0
21/03:00pm 22.4 19.2 8.5 41 7.5 ENE 15 28 8 15 - - 0.0
21/02:30pm 22.4 19.6 8.5 41 7.5 ENE 13 26 7 14 - - 0.0
21/02:00pm 22.4 19.6 9.9 45 6.9 ENE 15 26 8 14 - - 0.0
21/01:30pm 21.7 18.6 10.2 48 6.4 ENE 17 28 9 15 - - 0.0
21/01:00pm 21.2 18.9 10.4 50 6.0 E 13 24 7 13 - - 0.0
21/12:30pm 20.9 17.9 10.7 52 5.7 E 17 28 9 15 - - 0.0
21/12:00pm 20.2 18.6 11.4 57 4.9 E 11 22 6 12 - - 0.0
21/11:30am 19.5 16.2 11.0 58 4.7 E 19 30 10 16 - - 0.0
21/11:00am 18.7 16.4 11.8 64 3.9 ENE 15 24 8 13 - - 0.0
21/10:30am 18.0 15.5 11.1 64 3.8 E 15 24 8 13 - - 0.0
21/10:00am 17.1 14.6 11.2 68 3.2 E 15 24 8 13 - - 0.0
21/09:30am 16.2 14.1 11.2 72 2.7 E 13 24 7 13 - - 0.0
21/09:00am 14.8 12.9 11.8 82 1.6 E 13 22 7 12 - - 0.2
21/08:30am 13.1 10.5 12.0 93 0.6 E 17 26 9 14 - - 0.2
21/08:00am 12.2 9.6 12.0 99 0.1 E 17 26 9 14 - - 0.2
21/07:30am 11.5 8.7 11.3 99 0.1 E 17 24 9 13 - - 0.2
21/07:00am 11.5 8.7 11.3 99 0.1 E 17 24 9 13 - - 0.2
21/06:30am 11.6 8.8 11.4 99 0.1 E 17 22 9 12 - - 0.2
21/06:00am 11.9 9.2 11.6 98 0.2 E 17 26 9 14 - - 0.2
21/05:30am 12.1 9.4 11.6 97 0.3 E 17 26 9 14 - - 0.2
21/05:00am 12.3 9.9 11.5 95 0.4 E 15 24 8 13 - - 0.0
21/04:30am 12.5 9.8 11.6 94 0.5 E 17 24 9 13 - - 0.0
21/04:00am 12.8 10.5 11.7 93 0.6 E 15 24 8 13 - - 0.0
21/03:30am 13.0 10.7 11.9 93 0.6 E 15 22 8 12 - - 0.0
21/03:00am 13.0 10.7 11.9 93 0.6 E 15 24 8 13 - - 0.0
21/02:30am 13.3 11.5 12.2 93 0.6 ESE 13 20 7 11 - - 0.0
21/02:00am 13.3 11.1 12.2 93 0.6 E 15 24 8 13 - - 0.0
21/01:30am 13.4 11.3 12.3 93 0.6 ESE 15 22 8 12 - - 0.0
21/01:00am 13.5 11.8 12.4 93 0.6 ESE 13 20 7 11 - - 0.0
21/12:30am 13.6 11.9 12.5 93 0.6 ESE 13 17 7 9 - - 0.0
21/12:00am 13.6 11.9 12.3 92 0.7 E 13 20 7 11 - - 0.0
 
Date/Time
WST
Temp
°C
App
Temp
°C
Dew
Point
°C
Rel
Hum
%
Delta-T
°C
Wind Press
QNH
hPa
Press
MSL
hPa
Rain since
9am
mm
Dir  Spd
km/h
Gust
km/h
Spd
kts
Gust
kts
20/11:30pm 13.8 12.1 12.4 91 0.8 ESE 13 17 7 9 - - 0.0
20/11:00pm 13.9 12.2 12.5 91 0.8 ESE 13 20 7 11 - - 0.0
20/10:30pm 14.1 12.4 12.5 90 0.9 E 13 17 7 9 - - 0.0
20/10:00pm 14.4 12.8 12.8 90 0.9 E 13 17 7 9 - - 0.0
20/09:30pm 14.5 13.0 13.0 91 0.8 E 13 17 7 9 - - 0.0
20/09:00pm 14.5 12.9 12.9 90 0.9 E 13 17 7 9 - - 0.0
20/08:30pm 14.7 13.5 12.7 88 1.1 ESE 11 20 6 11 - - 0.0
20/08:00pm 15.3 14.1 12.8 85 1.4 ESE 11 15 6 8 - - 0.0
20/07:30pm 15.8 14.8 13.5 86 1.3 SE 11 17 6 9 - - 0.0
20/07:00pm 15.9 14.7 14.1 89 1.0 SE 13 20 7 11 - - 0.0
20/06:30pm 16.3 15.5 14.1 87 1.3 SSE 11 15 6 8 - - 0.0
20/06:00pm 16.4 15.9 13.9 85 1.4 S 9 13 5 7 - - 0.0
20/05:30pm 17.1 16.6 13.8 81 1.9 SSW 9 13 5 7 - - 0.0
20/05:00pm 17.9 17.8 13.8 77 2.4 SSW 7 11 4 6 - - 0.0
20/04:30pm 18.6 18.2 14.1 75 2.6 SSW 9 17 5 9 - - 0.0
20/04:00pm 18.3 18.5 14.2 77 2.4 SSW 6 9 3 5 - - 0.0

Other formats

Comma delimited format used in spreadsheet applications
http://www.bom.gov.au/fwo/IDW60801/IDW60801.95610.axf

JavaScript Object Notation format (JSON) in row-major order
http://www.bom.gov.au/fwo/IDW60801/IDW60801.95610.json

Data quality

Most of these data are generated automatically and are frequently updated. Quality checks on data are not normally performed. It is possible for incorrect values to appear. Refer to information at About Latest Weather Observations and please check the disclaimer before using these data.